createdAt,value
2023-04-02T00:02:23.345Z,7.42
2023-04-02T00:05:31.646Z,7.33
2023-04-02T00:08:03.923Z,7.28
2023-04-02T00:10:46.815Z,7.29
2023-04-02T00:13:15.602Z,7.32
2023-04-02T00:15:49.503Z,7.26
2023-04-02T00:18:23.989Z,6.96
2023-04-02T00:20:56.153Z,7.33
2023-04-02T00:23:23.692Z,7.13
2023-04-02T00:25:52.569Z,7.32
2023-04-02T00:28:22.622Z,7.33
2023-04-02T00:31:10.816Z,7.32
2023-04-02T00:33:38.090Z,7.23
2023-04-02T00:36:08.879Z,7.31
2023-04-02T00:38:35.919Z,7.12
2023-04-02T00:41:07.229Z,7.27
2023-04-02T00:43:39.732Z,7.12
2023-04-02T00:46:16.060Z,7.26
2023-04-02T00:49:09.919Z,7.25
2023-04-02T00:51:44.549Z,7.25
2023-04-02T00:54:16.156Z,6.74
2023-04-02T00:56:46.424Z,7.09
2023-04-02T00:59:30.253Z,7.22
2023-04-02T01:02:17.356Z,7.19
2023-04-02T01:05:20.039Z,7.17
2023-04-02T01:08:06.204Z,7.20
2023-04-02T01:10:32.805Z,7.18
2023-04-02T01:13:12.790Z,7.16
2023-04-02T01:15:44.250Z,7.12
2023-04-02T01:18:19.669Z,7.02
2023-04-02T01:21:01.976Z,6.98
2023-04-02T01:24:00.886Z,6.26
2023-04-02T01:26:30.503Z,6.88
2023-04-02T01:29:16.542Z,6.88
2023-04-02T01:31:47.651Z,6.86
2023-04-02T01:34:18.002Z,6.80
2023-04-02T01:36:59.192Z,6.82
2023-04-02T01:39:44.737Z,6.80
2023-04-02T01:42:19.677Z,6.83
2023-04-02T01:44:56.714Z,6.87
2023-04-02T01:47:27.444Z,6.87
2023-04-02T01:50:01.157Z,6.89
2023-04-02T01:52:42.630Z,6.88
2023-04-02T01:55:15.073Z,6.88
2023-04-02T01:57:49.465Z,6.89
2023-04-02T02:00:18.829Z,6.89
2023-04-02T02:02:50.420Z,6.89
2023-04-02T02:05:21.384Z,6.74
2023-04-02T02:07:48.381Z,6.83
2023-04-02T02:10:27.346Z,6.74
2023-04-02T02:12:59.309Z,6.74
2023-04-02T02:15:27.503Z,6.65
2023-04-02T02:18:04.308Z,6.50
2023-04-02T02:20:36.217Z,6.58
2023-04-02T02:23:04.168Z,6.62
2023-04-02T02:25:34.269Z,6.62
2023-04-02T02:28:17.212Z,6.59
2023-04-02T02:30:49.024Z,6.54
2023-04-02T02:33:37.606Z,6.55
2023-04-02T02:36:22.988Z,6.58
2023-04-02T02:38:56.982Z,6.57
2023-04-02T02:41:26.541Z,6.54
2023-04-02T02:44:08.480Z,6.51
2023-04-02T02:46:48.054Z,6.40
2023-04-02T02:49:22.614Z,6.33
2023-04-02T02:52:15.339Z,6.28
2023-04-02T02:55:06.167Z,6.29
2023-04-02T02:57:38.504Z,6.30
2023-04-02T03:00:09.748Z,6.31
2023-04-02T03:02:41.613Z,6.19
2023-04-02T03:05:09.982Z,6.19
2023-04-02T03:07:37.421Z,6.18
2023-04-02T03:10:06.841Z,6.22
2023-04-02T03:12:45.857Z,6.22
2023-04-02T03:15:37.286Z,5.62
2023-04-02T03:18:46.366Z,6.11
2023-04-02T03:21:28.122Z,6.09
2023-04-02T03:24:02.978Z,6.10
2023-04-02T03:26:29.596Z,6.15
2023-04-02T03:29:21.138Z,4.72
2023-04-02T03:31:54.961Z,6.13
2023-04-02T03:34:39.706Z,6.16
2023-04-02T03:37:32.243Z,6.14
2023-04-02T03:40:17.457Z,6.27
2023-04-02T03:43:21.980Z,5.80
2023-04-02T03:45:53.223Z,6.25
2023-04-02T03:48:34.672Z,6.19
2023-04-02T03:51:09.106Z,6.25
2023-04-02T03:53:35.840Z,6.24
2023-04-02T03:56:02.628Z,6.17
2023-04-02T03:58:39.712Z,6.03
2023-04-02T04:01:23.213Z,6.08
2023-04-02T04:03:53.673Z,5.54
2023-04-02T04:06:31.788Z,6.03
2023-04-02T04:09:35.483Z,5.98
2023-04-02T04:12:17.257Z,5.94
2023-04-02T04:14:51.862Z,5.91
2023-04-02T04:17:34.958Z,5.88
2023-04-02T04:20:22.596Z,5.82
2023-04-02T04:22:56.137Z,5.78
2023-04-02T04:25:30.696Z,5.72
2023-04-02T04:28:12.730Z,5.75
2023-04-02T04:31:00.007Z,5.72
2023-04-02T04:33:39.590Z,5.70
2023-04-02T04:36:19.278Z,5.65
2023-04-02T04:38:55.719Z,5.63
2023-04-02T04:41:29.125Z,5.26
2023-04-02T04:44:01.679Z,5.52
2023-04-02T04:46:41.451Z,5.38
2023-04-02T04:49:17.698Z,5.60
2023-04-02T04:51:51.160Z,5.59
2023-04-02T04:54:18.668Z,5.28
2023-04-02T04:56:49.982Z,5.50
2023-04-02T04:59:44.555Z,5.22
2023-04-02T05:02:15.106Z,5.48
2023-04-02T05:04:46.834Z,5.58
2023-04-02T05:07:23.848Z,5.57
2023-04-02T05:10:15.075Z,5.57
2023-04-02T05:13:04.199Z,5.55
2023-04-02T05:15:52.749Z,5.53
2023-04-02T05:18:25.294Z,5.53
2023-04-02T05:21:07.331Z,5.44
2023-04-02T05:23:48.971Z,5.53
2023-04-02T05:26:33.276Z,5.47
2023-04-02T05:29:28.727Z,5.44
2023-04-02T05:32:02.221Z,5.24
2023-04-02T05:34:33.799Z,5.41
2023-04-02T05:37:00.852Z,5.25
2023-04-02T05:39:27.854Z,5.11
2023-04-02T05:42:03.589Z,5.11
2023-04-02T05:44:38.647Z,5.33
2023-04-02T05:47:28.543Z,5.21
2023-04-02T05:50:04.776Z,5.40
2023-04-02T05:52:37.115Z,5.41
2023-04-02T05:55:37.435Z,5.40
2023-04-02T06:01:07.841Z,5.27
2023-04-02T06:03:47.758Z,5.24
2023-04-02T06:06:43.923Z,5.22
2023-04-02T06:09:21.402Z,4.99
2023-04-02T06:11:57.468Z,5.00
2023-04-02T06:14:26.672Z,4.85
2023-04-02T06:16:53.454Z,5.12
2023-04-02T06:19:29.223Z,5.07
2023-04-02T06:22:03.548Z,4.87
2023-04-02T06:24:31.642Z,4.95
2023-04-02T06:27:06.489Z,4.73
2023-04-02T06:29:40.097Z,4.90
2023-04-02T06:32:08.605Z,4.78
2023-04-02T06:34:38.721Z,4.91
2023-04-02T06:37:22.323Z,4.87
2023-04-02T06:39:48.926Z,4.81
2023-04-02T06:42:23.879Z,4.79
2023-04-02T06:44:51.168Z,4.86
2023-04-02T06:47:42.437Z,4.99
2023-04-02T06:50:23.840Z,5.08
2023-04-02T06:53:05.365Z,4.95
2023-04-02T06:55:47.666Z,5.04
2023-04-02T06:58:19.523Z,5.02
2023-04-02T07:00:51.116Z,4.98
2023-04-02T07:03:21.770Z,4.91
2023-04-02T07:05:48.511Z,4.92
2023-04-02T07:08:15.304Z,4.96
2023-04-02T07:10:42.215Z,4.93
2023-04-02T07:13:21.654Z,4.87
2023-04-02T07:15:52.199Z,4.79
2023-04-02T07:18:29.761Z,4.82
2023-04-02T07:20:59.189Z,4.85
2023-04-02T07:23:26.544Z,4.65
2023-04-02T07:25:54.931Z,4.86
2023-04-02T07:28:22.859Z,4.93
2023-04-02T07:30:51.284Z,4.90
2023-04-02T07:33:22.585Z,4.59
2023-04-02T07:35:51.289Z,4.74
2023-04-02T07:38:17.928Z,4.81
2023-04-02T07:40:44.602Z,4.78
2023-04-02T07:43:11.970Z,4.75
2023-04-02T07:45:38.807Z,4.76
2023-04-02T07:48:13.416Z,4.60
2023-04-02T07:50:42.255Z,4.60
2023-04-02T07:53:27.156Z,4.71
2023-04-02T07:55:53.865Z,4.80
2023-04-02T07:58:20.493Z,4.72
2023-04-02T08:00:47.102Z,4.80
2023-04-02T08:03:14.293Z,4.92
2023-04-02T08:05:41.256Z,4.86
2023-04-02T08:08:07.813Z,4.91
2023-04-02T08:10:39.144Z,4.97
2023-04-02T08:13:05.970Z,4.57
2023-04-02T08:15:35.059Z,4.98
2023-04-02T08:18:04.384Z,5.03
2023-04-02T08:20:31.598Z,5.08
2023-04-02T08:22:58.329Z,5.18
2023-04-02T08:25:28.048Z,5.19
2023-04-02T08:27:54.724Z,5.24
2023-04-02T08:30:21.810Z,5.24
2023-04-02T08:32:50.780Z,5.17
2023-04-02T08:35:17.575Z,5.07
2023-04-02T08:37:44.541Z,5.26
2023-04-02T08:40:25.717Z,5.24
2023-04-02T08:43:17.571Z,5.24
2023-04-02T08:46:13.286Z,5.21
2023-04-02T08:48:44.072Z,5.08
2023-04-02T08:51:22.687Z,5.07
2023-04-02T08:53:50.480Z,4.50
2023-04-02T08:56:29.466Z,5.07
2023-04-02T08:59:11.274Z,5.06
2023-04-02T09:01:47.740Z,5.25
2023-04-02T09:04:18.875Z,5.27
2023-04-02T09:06:47.202Z,5.29
2023-04-02T09:09:15.712Z,5.16
2023-04-02T09:11:56.907Z,5.05
2023-04-02T09:14:51.334Z,5.20
2023-04-02T09:17:21.233Z,5.17
2023-04-02T09:20:11.729Z,5.19
2023-04-02T09:22:39.576Z,5.09
2023-04-02T09:25:15.365Z,5.09
2023-04-02T09:27:42.264Z,5.12
2023-04-02T09:30:42.792Z,5.15
2023-04-02T09:33:11.974Z,5.19
2023-04-02T09:36:09.520Z,4.88
2023-04-02T09:39:29.178Z,5.25
2023-04-02T09:42:05.473Z,5.26
2023-04-02T09:44:48.445Z,5.24
2023-04-02T09:47:28.188Z,5.25
2023-04-02T09:49:55.613Z,5.28
2023-04-02T09:52:33.975Z,5.28
2023-04-02T09:55:19.514Z,5.21
2023-04-02T09:58:24.033Z,5.27
2023-04-02T10:01:07.270Z,5.25
2023-04-02T10:03:37.360Z,5.03
2023-04-02T10:06:09.351Z,5.18
2023-04-02T10:08:37.492Z,5.28
2023-04-02T10:11:11.111Z,5.38
2023-04-02T10:13:49.617Z,5.61
2023-04-02T10:16:39.519Z,5.82
2023-04-02T10:19:22.963Z,5.76
2023-04-02T10:21:50.655Z,5.69
2023-04-02T10:24:18.593Z,5.74
2023-04-02T10:26:48.060Z,5.82
2023-04-02T10:29:37.215Z,5.95
2023-04-02T10:32:18.776Z,5.51
2023-04-02T10:35:30.580Z,6.08
2023-04-02T10:38:50.773Z,6.10
2023-04-02T10:41:31.598Z,6.03
2023-04-02T10:44:06.171Z,6.14
2023-04-02T10:46:57.457Z,6.01
2023-04-02T10:49:36.028Z,5.95
2023-04-02T10:52:26.374Z,6.04
2023-04-02T10:54:57.818Z,6.07
2023-04-02T10:57:38.549Z,6.10
2023-04-02T11:00:17.472Z,6.20
2023-04-02T11:02:58.023Z,6.15
2023-04-02T11:05:58.141Z,6.24
2023-04-02T11:08:49.269Z,6.27
2023-04-02T11:11:24.957Z,6.35
2023-04-02T11:14:16.768Z,6.31
2023-04-02T11:16:45.486Z,6.34
2023-04-02T11:19:19.618Z,6.45
2023-04-02T11:22:01.860Z,6.69
2023-04-02T11:24:37.368Z,6.68
2023-04-02T11:27:13.969Z,6.73
2023-04-02T11:29:49.493Z,6.79
2023-04-02T11:32:22.356Z,6.85
2023-04-02T11:34:56.316Z,6.90
2023-04-02T11:38:05.698Z,6.84
2023-04-02T11:40:54.442Z,7.10
2023-04-02T11:43:33.832Z,6.92
2023-04-02T11:46:28.845Z,6.97
2023-04-02T11:49:42.067Z,6.94
2023-04-02T11:52:29.190Z,7.06
2023-04-02T11:55:06.158Z,7.06
2023-04-02T11:57:55.295Z,7.00
2023-04-02T12:00:40.480Z,7.00
2023-04-02T12:03:20.681Z,7.04
2023-04-02T12:06:13.568Z,7.20
2023-04-02T12:09:08.196Z,7.42
2023-04-02T12:11:40.570Z,7.57
2023-04-02T12:14:46.206Z,7.81
2023-04-02T12:17:34.889Z,7.88
2023-04-02T12:20:32.439Z,8.03
2023-04-02T12:23:03.456Z,8.09
2023-04-02T12:25:57.249Z,7.97
2023-04-02T12:28:29.724Z,8.25
2023-04-02T12:31:14.570Z,8.15
2023-04-02T12:33:53.039Z,8.63
2023-04-02T12:36:29.266Z,8.88
2023-04-02T12:38:59.424Z,9.07
2023-04-02T12:41:34.766Z,9.55
2023-04-02T12:44:06.097Z,9.50
2023-04-02T12:46:49.312Z,9.51
2023-04-02T12:49:31.509Z,9.46
2023-04-02T12:52:07.316Z,9.32
2023-04-02T12:54:39.738Z,9.27
2023-04-02T12:57:25.382Z,9.32
2023-04-02T13:00:21.921Z,9.07
2023-04-02T13:02:51.486Z,8.88
2023-04-02T13:05:40.383Z,9.01
2023-04-02T13:08:15.463Z,9.11
2023-04-02T13:10:43.387Z,9.10
2023-04-02T13:13:33.100Z,9.13
2023-04-02T13:16:09.233Z,9.03
2023-04-02T13:18:39.911Z,8.77
2023-04-02T13:21:29.897Z,8.67
2023-04-02T13:23:56.638Z,8.62
2023-04-02T13:26:30.014Z,8.74
2023-04-02T13:29:02.588Z,8.81
2023-04-02T13:31:31.112Z,8.83
2023-04-02T13:33:58.784Z,8.95
2023-04-02T13:36:26.335Z,9.14
2023-04-02T13:38:53.171Z,9.02
2023-04-02T13:41:26.996Z,9.34
2023-04-02T13:43:59.719Z,9.18
2023-04-02T13:46:32.561Z,9.24
2023-04-02T13:48:59.144Z,9.33
2023-04-02T13:51:53.922Z,9.24
2023-04-02T13:54:27.396Z,9.22
2023-04-02T13:56:56.112Z,9.11
2023-04-02T13:59:23.653Z,9.15
2023-04-02T14:01:57.235Z,9.22
2023-04-02T14:04:30.081Z,9.25
2023-04-02T14:07:30.193Z,9.23
2023-04-02T14:10:06.458Z,9.18
2023-04-02T14:12:38.077Z,9.26
2023-04-02T14:15:16.678Z,9.36
2023-04-02T14:18:11.933Z,9.35
2023-04-02T14:20:49.704Z,9.39
2023-04-02T14:23:30.739Z,9.23
2023-04-02T14:26:12.718Z,9.38
2023-04-02T14:28:58.881Z,9.31
2023-04-02T14:31:32.645Z,9.36
2023-04-02T14:34:56.909Z,9.56
2023-04-02T14:37:33.846Z,9.62
2023-04-02T14:40:19.282Z,9.69
2023-04-02T14:43:03.510Z,9.63
2023-04-02T14:46:10.390Z,9.68
2023-04-02T14:48:43.310Z,9.82
2023-04-02T14:51:27.963Z,9.72
2023-04-02T14:54:01.358Z,9.74
2023-04-02T14:56:31.094Z,9.84
2023-04-02T14:59:17.309Z,9.71
2023-04-02T15:01:49.697Z,9.68
2023-04-02T15:04:38.295Z,9.81
2023-04-02T15:07:39.133Z,9.77
2023-04-02T15:10:09.411Z,9.70
2023-04-02T15:12:38.735Z,9.85
2023-04-02T15:15:24.362Z,9.78
2023-04-02T15:17:59.825Z,9.80
2023-04-02T15:20:39.389Z,9.98
2023-04-02T15:23:25.189Z,9.86
2023-04-02T15:26:17.163Z,10.09
2023-04-02T15:28:55.049Z,9.49
2023-04-02T15:31:26.014Z,9.91
2023-04-02T15:33:58.394Z,9.89
2023-04-02T15:36:45.064Z,9.86
2023-04-02T15:39:21.880Z,9.69
2023-04-02T15:42:24.337Z,9.74
2023-04-02T15:45:11.003Z,9.74
2023-04-02T15:47:52.217Z,9.71
2023-04-02T15:50:28.049Z,9.75
2023-04-02T15:53:06.897Z,9.70
2023-04-02T15:55:42.106Z,9.62
2023-04-02T15:58:19.775Z,9.57
2023-04-02T16:01:05.178Z,9.61
2023-04-02T16:03:56.308Z,9.41
2023-04-02T16:06:27.110Z,9.54
2023-04-02T16:09:05.073Z,9.49
2023-04-02T16:11:35.806Z,9.49
2023-04-02T16:14:11.348Z,9.54
2023-04-02T16:16:40.476Z,9.51
2023-04-02T16:19:15.962Z,9.51
2023-04-02T16:22:17.620Z,9.51
2023-04-02T16:24:48.739Z,9.38
2023-04-02T16:27:27.993Z,9.49
2023-04-02T16:30:19.570Z,9.49
2023-04-02T16:33:11.103Z,9.50
2023-04-02T16:35:56.990Z,9.46
2023-04-02T16:38:35.374Z,9.43
2023-04-02T16:41:28.992Z,9.41
2023-04-02T16:44:19.322Z,9.37
2023-04-02T16:47:27.564Z,9.28
2023-04-02T16:50:01.728Z,9.25
2023-04-02T16:52:28.298Z,9.25
2023-04-02T16:55:32.372Z,9.26
2023-04-02T16:58:21.891Z,9.28
2023-04-02T17:00:54.853Z,9.26
2023-04-02T17:03:59.411Z,9.23
2023-04-02T17:06:55.242Z,8.80
2023-04-02T17:10:03.596Z,9.11
2023-04-02T17:12:45.613Z,9.07
2023-04-02T17:15:27.645Z,8.94
2023-04-02T17:18:02.019Z,8.97
2023-04-02T17:20:56.505Z,9.04
2023-04-02T17:23:27.066Z,8.87
2023-04-02T17:26:10.558Z,8.93
2023-04-02T17:28:40.697Z,8.87
2023-04-02T17:31:50.102Z,8.80
2023-04-02T17:34:37.258Z,8.74
2023-04-02T17:37:34.630Z,8.72
2023-04-02T17:40:23.497Z,8.70
2023-04-02T17:43:00.322Z,8.60
2023-04-02T17:45:56.502Z,8.52
2023-04-02T17:48:46.322Z,8.43
2023-04-02T17:51:30.546Z,8.28
2023-04-02T17:54:34.256Z,8.29
2023-04-02T17:57:24.080Z,8.21
2023-04-02T18:00:12.478Z,8.16
2023-04-02T18:03:07.843Z,7.87
2023-04-02T18:05:45.086Z,7.94
2023-04-02T18:08:22.604Z,7.85
2023-04-02T18:11:09.151Z,7.77
2023-04-02T18:13:39.669Z,7.67
2023-04-02T18:16:44.204Z,7.59
2023-04-02T18:19:15.044Z,7.38
2023-04-02T18:21:53.964Z,7.41
2023-04-02T18:24:59.067Z,7.37
2023-04-02T18:27:55.784Z,7.25
2023-04-02T18:30:34.902Z,7.13
2023-04-02T18:33:25.903Z,6.80
2023-04-02T18:36:37.602Z,7.01
2023-04-02T18:39:49.216Z,6.94
2023-04-02T18:42:50.566Z,6.84
2023-04-02T18:45:36.003Z,6.77
2023-04-02T18:48:16.781Z,6.69
2023-04-02T18:50:46.999Z,6.64
2023-04-02T18:53:19.208Z,6.57
2023-04-02T18:55:50.949Z,6.55
2023-04-02T18:58:31.571Z,6.23
2023-04-02T19:01:01.271Z,6.42
2023-04-02T19:03:36.644Z,6.40
2023-04-02T19:06:08.146Z,6.35
2023-04-02T19:08:50.483Z,6.30
2023-04-02T19:11:32.075Z,6.27
2023-04-02T19:14:01.411Z,6.11
2023-04-02T19:16:47.573Z,6.07
2023-04-02T19:19:24.213Z,6.09
2023-04-02T19:22:10.396Z,6.01
2023-04-02T19:24:49.348Z,5.99
2023-04-02T19:27:34.065Z,5.94
2023-04-02T19:30:24.748Z,5.88
2023-04-02T19:33:09.947Z,5.82
2023-04-02T19:35:58.981Z,6.22
2023-04-02T19:38:58.972Z,5.92
2023-04-02T19:41:37.762Z,5.80
2023-04-02T19:44:11.757Z,5.67
2023-04-02T19:46:39.745Z,5.68
2023-04-02T19:49:22.966Z,5.66
2023-04-02T19:51:50.774Z,5.52
2023-04-02T19:54:20.801Z,5.55
2023-04-02T19:56:48.203Z,5.47
2023-04-02T19:59:18.160Z,5.31
2023-04-02T20:01:48.165Z,4.90
2023-04-02T20:04:15.572Z,5.28
2023-04-02T20:06:43.428Z,5.24
2023-04-02T20:09:10.362Z,5.07
2023-04-02T20:11:38.384Z,5.22
2023-04-02T20:14:05.488Z,5.19
2023-04-02T20:16:33.977Z,5.15
2023-04-02T20:19:00.822Z,4.99
2023-04-02T20:21:34.719Z,5.01
2023-04-02T20:24:01.569Z,5.05
2023-04-02T20:26:29.760Z,5.13
2023-04-02T20:28:56.616Z,5.02
2023-04-02T20:31:23.536Z,5.07
2023-04-02T20:33:50.392Z,5.06
2023-04-02T20:36:17.809Z,5.07
2023-04-02T20:38:45.859Z,5.08
2023-04-02T20:41:15.858Z,5.05
2023-04-02T20:43:43.154Z,4.98
2023-04-02T20:46:15.817Z,5.10
2023-04-02T20:48:44.910Z,4.34
2023-04-02T20:51:14.638Z,5.05
2023-04-02T20:53:47.174Z,5.09
2023-04-02T20:56:23.379Z,4.98
2023-04-02T20:58:52.787Z,4.69
2023-04-02T21:01:26.783Z,5.06
2023-04-02T21:04:03.570Z,4.88
2023-04-02T21:06:34.820Z,4.75
2023-04-02T21:09:14.729Z,4.90
2023-04-02T21:11:44.660Z,4.85
2023-04-02T21:14:11.508Z,4.87
2023-04-02T21:16:45.278Z,3.92
2023-04-02T21:19:15.157Z,4.61
2023-04-02T21:21:44.375Z,4.54
2023-04-02T21:24:11.419Z,4.34
2023-04-02T21:26:40.355Z,4.80
2023-04-02T21:29:07.655Z,4.77
2023-04-02T21:31:40.040Z,4.74
2023-04-02T21:34:09.796Z,4.06
2023-04-02T21:36:40.870Z,4.67
2023-04-02T21:39:16.135Z,4.14
2023-04-02T21:41:45.093Z,4.55
2023-04-02T21:44:16.641Z,4.19
2023-04-02T21:46:47.101Z,4.45
2023-04-02T21:49:22.034Z,4.33
2023-04-02T21:51:51.831Z,4.09
2023-04-02T21:54:18.650Z,4.31
2023-04-02T21:56:51.706Z,4.14
2023-04-02T21:59:18.992Z,4.18
2023-04-02T22:01:48.755Z,4.19
2023-04-02T22:04:21.327Z,3.85
2023-04-02T22:06:51.061Z,4.06
2023-04-02T22:09:25.762Z,3.95
2023-04-02T22:11:56.124Z,4.01
2023-04-02T22:14:23.286Z,4.00
2023-04-02T22:16:52.690Z,3.91
2023-04-02T22:19:21.971Z,3.92
2023-04-02T22:21:51.933Z,3.93
2023-04-02T22:24:25.497Z,3.76
2023-04-02T22:26:52.393Z,3.73
2023-04-02T22:29:19.137Z,3.80
2023-04-02T22:31:45.959Z,3.78
2023-04-02T22:34:14.923Z,3.75
2023-04-02T22:36:41.676Z,3.54
2023-04-02T22:39:12.829Z,3.69
2023-04-02T22:41:42.779Z,3.64
2023-04-02T22:44:14.203Z,3.31
2023-04-02T22:46:43.675Z,3.42
2023-04-02T22:49:11.681Z,3.42
2023-04-02T22:51:38.644Z,3.50
2023-04-02T22:54:05.799Z,3.51
2023-04-02T22:56:33.314Z,3.40
2023-04-02T22:59:02.447Z,3.48
2023-04-02T23:01:36.825Z,3.42
2023-04-02T23:04:05.356Z,3.43
2023-04-02T23:06:34.410Z,3.28
2023-04-02T23:09:01.159Z,3.19
2023-04-02T23:11:30.474Z,3.23
2023-04-02T23:13:58.057Z,3.13
2023-04-02T23:16:27.767Z,3.21
2023-04-02T23:18:55.939Z,3.17
2023-04-02T23:21:26.220Z,2.66
2023-04-02T23:23:53.342Z,3.10
2023-04-02T23:26:26.687Z,3.08
2023-04-02T23:28:53.602Z,3.07
2023-04-02T23:31:25.089Z,2.99
2023-04-02T23:33:52.648Z,2.99
2023-04-02T23:36:28.233Z,3.15
2023-04-02T23:39:01.274Z,3.14
2023-04-02T23:41:29.379Z,3.14
2023-04-02T23:43:57.344Z,3.11
2023-04-02T23:46:25.215Z,3.01
2023-04-02T23:48:52.381Z,3.06
2023-04-02T23:51:22.306Z,3.05
2023-04-02T23:53:50.480Z,3.01
2023-04-02T23:56:20.876Z,2.99
2023-04-02T23:58:48.428Z,2.66
